Jhelum Weather



Jhelum's Current Weather

Temprature 29.772o clear sky

clear sky

Rain: 0 %

Min Temprature29.772o
Max Temprature29.772o
Humidity26
Wind Speed1.86 m/h
Sun Rise06:10:55
Sun Set17:29:32
Current Time: 18-Oct-2019 16:34:30
Lat/Lon: 32.94, 73.72




Jhelum's Geo Location



Jhelum's Weather Forecast

Time Overall Temp Min Temp Max Temp Humidity Wind Speed Rain
18-Oct-2019 (Fri)
17:00:00 clear sky 28.590 28.590 29.772 26 1.86 m/h 0 %
20:00:00 clear sky 24.200 24.200 25.083 36 4.11 m/h 0 %
23:00:00 scattered clouds 21.800 21.800 22.389 44 1.44 m/h 0 %
19-Oct-2019 (Sat)
02:00:00 light rain 23.580 23.580 23.878 37 6.3 m/h 19 %
05:00:00 overcast clouds 20.738 20.738 20.738 48 3.33 m/h 0 %
08:00:00 broken clouds 24.372 24.372 24.372 36 2.29 m/h 0 %
11:00:00 scattered clouds 30.050 30.050 30.050 24 3.37 m/h 0 %
14:00:00 broken clouds 32.273 32.273 32.273 18 4.07 m/h 0 %
17:00:00 scattered clouds 29.004 29.004 29.004 23 4.46 m/h 0 %
20:00:00 clear sky 24.301 24.301 24.301 32 4.08 m/h 0 %
23:00:00 clear sky 22.064 22.064 22.064 34 2.14 m/h 0 %
20-Oct-2019 (Sun)
02:00:00 clear sky 20.437 20.437 20.437 37 1.63 m/h 0 %
05:00:00 clear sky 19.488 19.488 19.488 37 1.86 m/h 0 %
08:00:00 clear sky 23.714 23.714 23.714 28 1.56 m/h 0 %
11:00:00 clear sky 29.790 29.790 29.790 19 2.53 m/h 0 %
14:00:00 overcast clouds 31.633 31.633 31.633 16 3.82 m/h 0 %
17:00:00 overcast clouds 28.341 28.341 28.341 21 2.65 m/h 0 %
20:00:00 overcast clouds 24.193 24.193 24.193 28 2.83 m/h 0 %
23:00:00 overcast clouds 22.239 22.239 22.239 31 1.53 m/h 0 %
21-Oct-2019 (Mon)
02:00:00 scattered clouds 19.966 19.966 19.966 35 1.29 m/h 0 %
05:00:00 few clouds 18.497 18.497 18.497 36 1.15 m/h 0 %
08:00:00 clear sky 23.192 23.192 23.192 27 1.45 m/h 0 %
11:00:00 clear sky 30.055 30.055 30.055 18 0.29 m/h 0 %
14:00:00 clear sky 32.438 32.438 32.438 13 2.48 m/h 0 %
17:00:00 clear sky 29.354 29.354 29.354 19 3.75 m/h 0 %
20:00:00 scattered clouds 24.773 24.773 24.773 28 2.95 m/h 0 %
23:00:00 few clouds 21.594 21.594 21.594 35 1.43 m/h 0 %
22-Oct-2019 (Tue)
02:00:00 clear sky 20.622 20.622 20.622 35 1.54 m/h 0 %
05:00:00 clear sky 19.046 19.046 19.046 35 1.45 m/h 0 %
08:00:00 clear sky 23.571 23.571 23.571 26 1.19 m/h 0 %
11:00:00 clear sky 30.065 30.065 30.065 17 1.98 m/h 0 %
14:00:00 clear sky 32.839 32.839 32.839 15 4.35 m/h 0 %
17:00:00 clear sky 29.039 29.039 29.039 21 3.18 m/h 0 %
20:00:00 scattered clouds 24.050 24.050 24.050 31 2.44 m/h 0 %
23:00:00 broken clouds 22.092 22.092 22.092 34 1.31 m/h 0 %
23-Oct-2019 (Wed)
02:00:00 overcast clouds 21.735 21.735 21.735 33 1.21 m/h 0 %
05:00:00 overcast clouds 19.808 19.808 19.808 36 0.97 m/h 0 %
08:00:00 overcast clouds 23.453 23.453 23.453 29 1.42 m/h 0 %
11:00:00 overcast clouds 29.264 29.264 29.264 19 2.49 m/h 0 %
14:00:00 overcast clouds 31.851 31.851 31.851 15 1.7 m/h 0 %

Famous Cities (61)